Etusivu
METAR-TAF:

METAR-TAF

Lentoasemat :

Amman, Jordania

Leveyspiiri: 31-59N, Pituuspiiri: 035-59E, korkeus merenpinnasta: 767 m

Tämänhetkinen sää

Tämä raportti tehtiin 50 minuuttia sitten, kello 00.00 UTC
tyyntä
Lämpötila 14°C
Kosteus 44%
Ilmanpaine 1018 hPa
Näkyvyys: 5000 m
usvaa

METAR: OJAM 300000Z 00000KT 5000 HZ NSC 14/02 Q1018 NOSIG

Aika: 02:50 (00:50 UTC)

Sääennuste

Tämä raportti tehtiin 2 tuntia ja 0 minuuttia sitten, kello 22.50 UTC
Ennuste voimassa 30. päivästä klo 00 UTC - 31. päivään klo 06 UTC
Tuuli 1 kn eri suunnista
Näkyvyys: 6000 m
Ajoittain
30. päivästä klo 02 UTC - 30. päivään klo 06 UTC
Näkyvyys: 2500 m
savua
Tulossa
30. päivästä klo 09 UTC - 30. päivään klo 11 UTC
Tuuli 15 kn etelästä/lounaasta
Näkyvyys: 3000 m
pölymyrsky

TAF: OJAM 292250Z 3000/3106 VRB01KT 6000 NSC TEMPO 3002/3006 2500 FU BECMG 3009/3011 20015KT 3000 BLDU

Säähavainnot ja -ennusteet yli 4000 lentoasemalta (METAR- ja TAF-raportit).

Käytössä olevat sääasemat on merkitty karttaan keltaisilla ja punaisilla pisteillä.

Aseta hiiri pisteen päälle nähdäksesi sääaseman nimen.

Klikkaa sitten nähdäksesi säähavainnot ja -ennusteet.

Kartan vaihtaminen: klikkaa mustalla rastilla varustettuja vihreitä pisteitä, niin voit zoomata sisään; viivalla varustettua vihreää pistettä, niin voit zoomata ulos tai vihreitä nuolia, niin pääset viereisille kartoille.


METAR-TAF: